sensor_id;sensor_type;location;lat;lon;timestamp;P1;durP1;ratioP1;P2;durP2;ratioP2
32455;SDS011;18912;43.270;27.942;2024-02-26T00:00:29;25.83;;;11.67;;
32455;SDS011;18912;43.270;27.942;2024-02-26T00:02:55;21.17;;;9.57;;
32455;SDS011;18912;43.270;27.942;2024-02-26T00:05:21;26.70;;;12.17;;
32455;SDS011;18912;43.270;27.942;2024-02-26T00:07:46;27.57;;;10.93;;
32455;SDS011;18912;43.270;27.942;2024-02-26T00:10:12;19.23;;;9.87;;
32455;SDS011;18912;43.270;27.942;2024-02-26T00:12:38;26.30;;;11.38;;
32455;SDS011;18912;43.270;27.942;2024-02-26T00:15:05;19.80;;;10.00;;
32455;SDS011;18912;43.270;27.942;2024-02-26T00:17:31;24.15;;;9.50;;
32455;SDS011;18912;43.270;27.942;2024-02-26T00:19:56;26.87;;;9.60;;
32455;SDS011;18912;43.270;27.942;2024-02-26T00:22:22;20.07;;;9.67;;
32455;SDS011;18912;43.270;27.942;2024-02-26T00:24:47;19.27;;;9.03;;
32455;SDS011;18912;43.270;27.942;2024-02-26T00:27:13;17.27;;;9.50;;
32455;SDS011;18912;43.270;27.942;2024-02-26T00:29:38;19.57;;;9.23;;
32455;SDS011;18912;43.270;27.942;2024-02-26T00:32:04;24.10;;;13.20;;
32455;SDS011;18912;43.270;27.942;2024-02-26T00:34:29;31.67;;;11.95;;
32455;SDS011;18912;43.270;27.942;2024-02-26T00:36:56;21.08;;;11.10;;
32455;SDS011;18912;43.270;27.942;2024-02-26T00:39:21;24.50;;;10.67;;
32455;SDS011;18912;43.270;27.942;2024-02-26T00:41:47;25.70;;;10.40;;
32455;SDS011;18912;43.270;27.942;2024-02-26T00:44:12;23.47;;;11.40;;
32455;SDS011;18912;43.270;27.942;2024-02-26T00:46:38;22.53;;;11.03;;
32455;SDS011;18912;43.270;27.942;2024-02-26T00:49:03;28.67;;;12.20;;
32455;SDS011;18912;43.270;27.942;2024-02-26T00:51:28;23.03;;;12.23;;
32455;SDS011;18912;43.270;27.942;2024-02-26T00:53:54;28.53;;;13.33;;
32455;SDS011;18912;43.270;27.942;2024-02-26T00:56:21;22.92;;;10.77;;
32455;SDS011;18912;43.270;27.942;2024-02-26T00:58:46;20.20;;;10.45;;
32455;SDS011;18912;43.270;27.942;2024-02-26T01:01:12;21.00;;;10.63;;
32455;SDS011;18912;43.270;27.942;2024-02-26T01:03:37;24.13;;;10.33;;
32455;SDS011;18912;43.270;27.942;2024-02-26T01:06:03;21.53;;;10.27;;
32455;SDS011;18912;43.270;27.942;2024-02-26T01:08:28;22.97;;;11.67;;
32455;SDS011;18912;43.270;27.942;2024-02-26T01:10:54;20.63;;;10.77;;
32455;SDS011;18912;43.270;27.942;2024-02-26T01:13:19;29.77;;;13.17;;
32455;SDS011;18912;43.270;27.942;2024-02-26T01:15:45;24.73;;;11.13;;
32455;SDS011;18912;43.270;27.942;2024-02-26T01:18:11;17.07;;;10.27;;
32455;SDS011;18912;43.270;27.942;2024-02-26T01:20:37;19.10;;;10.38;;
32455;SDS011;18912;43.270;27.942;2024-02-26T01:23:02;19.50;;;10.37;;
32455;SDS011;18912;43.270;27.942;2024-02-26T01:25:28;21.63;;;11.33;;
32455;SDS011;18912;43.270;27.942;2024-02-26T01:27:53;21.37;;;12.17;;
32455;SDS011;18912;43.270;27.942;2024-02-26T01:30:19;23.17;;;11.43;;
32455;SDS011;18912;43.270;27.942;2024-02-26T01:32:45;35.97;;;14.43;;
32455;SDS011;18912;43.270;27.942;2024-02-26T01:35:10;30.13;;;13.40;;
32455;SDS011;18912;43.270;27.942;2024-02-26T01:37:37;24.52;;;13.25;;
32455;SDS011;18912;43.270;27.942;2024-02-26T01:40:03;23.77;;;13.50;;
32455;SDS011;18912;43.270;27.942;2024-02-26T01:42:29;24.98;;;13.10;;
32455;SDS011;18912;43.270;27.942;2024-02-26T01:44:56;32.42;;;13.48;;
32455;SDS011;18912;43.270;27.942;2024-02-26T01:47:21;28.67;;;12.77;;
32455;SDS011;18912;43.270;27.942;2024-02-26T01:49:48;25.77;;;12.35;;
32455;SDS011;18912;43.270;27.942;2024-02-26T01:52:14;25.80;;;11.98;;
32455;SDS011;18912;43.270;27.942;2024-02-26T01:54:39;25.40;;;13.27;;
32455;SDS011;18912;43.270;27.942;2024-02-26T01:57:06;22.57;;;12.43;;
32455;SDS011;18912;43.270;27.942;2024-02-26T01:59:33;26.77;;;13.07;;
32455;SDS011;18912;43.270;27.942;2024-02-26T02:04:26;22.17;;;11.80;;
32455;SDS011;18912;43.270;27.942;2024-02-26T02:06:52;29.80;;;14.02;;
32455;SDS011;18912;43.270;27.942;2024-02-26T02:09:18;28.25;;;13.15;;
32455;SDS011;18912;43.270;27.942;2024-02-26T02:11:44;22.10;;;12.77;;
32455;SDS011;18912;43.270;27.942;2024-02-26T02:14:11;29.67;;;14.15;;
32455;SDS011;18912;43.270;27.942;2024-02-26T02:16:36;30.53;;;15.63;;
32455;SDS011;18912;43.270;27.942;2024-02-26T02:19:02;42.37;;;20.50;;
32455;SDS011;18912;43.270;27.942;2024-02-26T02:21:27;35.47;;;15.60;;
32455;SDS011;18912;43.270;27.942;2024-02-26T02:23:53;31.20;;;15.83;;
32455;SDS011;18912;43.270;27.942;2024-02-26T02:26:18;35.73;;;14.97;;
32455;SDS011;18912;43.270;27.942;2024-02-26T02:28:44;21.40;;;11.13;;
32455;SDS011;18912;43.270;27.942;2024-02-26T02:31:11;27.15;;;14.77;;
32455;SDS011;18912;43.270;27.942;2024-02-26T02:33:37;29.38;;;15.15;;
32455;SDS011;18912;43.270;27.942;2024-02-26T02:36:02;28.47;;;14.40;;
32455;SDS011;18912;43.270;27.942;2024-02-26T02:38:28;24.92;;;13.00;;
32455;SDS011;18912;43.270;27.942;2024-02-26T02:43:20;31.42;;;12.32;;
32455;SDS011;18912;43.270;27.942;2024-02-26T02:45:46;24.77;;;12.13;;
32455;SDS011;18912;43.270;27.942;2024-02-26T02:48:11;25.13;;;12.17;;
32455;SDS011;18912;43.270;27.942;2024-02-26T02:50:37;26.80;;;12.30;;
32455;SDS011;18912;43.270;27.942;2024-02-26T02:53:03;20.97;;;10.97;;
32455;SDS011;18912;43.270;27.942;2024-02-26T02:55:28;30.10;;;12.07;;
32455;SDS011;18912;43.270;27.942;2024-02-26T02:57:54;24.80;;;12.03;;
32455;SDS011;18912;43.270;27.942;2024-02-26T03:00:19;24.20;;;11.93;;
32455;SDS011;18912;43.270;27.942;2024-02-26T03:02:47;24.38;;;12.02;;
32455;SDS011;18912;43.270;27.942;2024-02-26T03:05:13;28.53;;;13.03;;
32455;SDS011;18912;43.270;27.942;2024-02-26T03:07:38;32.60;;;13.87;;
32455;SDS011;18912;43.270;27.942;2024-02-26T03:10:03;36.97;;;13.40;;
32455;SDS011;18912;43.270;27.942;2024-02-26T03:12:29;36.77;;;14.30;;
32455;SDS011;18912;43.270;27.942;2024-02-26T03:14:55;29.30;;;14.13;;
32455;SDS011;18912;43.270;27.942;2024-02-26T03:17:21;28.50;;;14.40;;
32455;SDS011;18912;43.270;27.942;2024-02-26T03:19:49;25.45;;;13.32;;
32455;SDS011;18912;43.270;27.942;2024-02-26T03:22:18;28.67;;;14.70;;
32455;SDS011;18912;43.270;27.942;2024-02-26T03:24:43;46.60;;;15.80;;
32455;SDS011;18912;43.270;27.942;2024-02-26T03:27:09;25.77;;;11.23;;
32455;SDS011;18912;43.270;27.942;2024-02-26T03:29:35;48.83;;;16.33;;
32455;SDS011;18912;43.270;27.942;2024-02-26T03:32:02;38.90;;;15.98;;
32455;SDS011;18912;43.270;27.942;2024-02-26T03:34:28;28.73;;;15.47;;
32455;SDS011;18912;43.270;27.942;2024-02-26T03:36:53;41.63;;;17.40;;
32455;SDS011;18912;43.270;27.942;2024-02-26T03:39:19;36.63;;;15.77;;
32455;SDS011;18912;43.270;27.942;2024-02-26T03:41:44;31.17;;;16.63;;
32455;SDS011;18912;43.270;27.942;2024-02-26T03:44:10;34.93;;;15.43;;
32455;SDS011;18912;43.270;27.942;2024-02-26T03:46:35;42.63;;;16.43;;
32455;SDS011;18912;43.270;27.942;2024-02-26T03:49:01;36.33;;;16.40;;
32455;SDS011;18912;43.270;27.942;2024-02-26T03:51:26;34.37;;;15.37;;
32455;SDS011;18912;43.270;27.942;2024-02-26T03:53:56;51.15;;;15.80;;
32455;SDS011;18912;43.270;27.942;2024-02-26T03:56:25;39.25;;;15.50;;
32455;SDS011;18912;43.270;27.942;2024-02-26T03:58:50;33.65;;;13.75;;
32455;SDS011;18912;43.270;27.942;2024-02-26T04:01:16;41.60;;;15.03;;
32455;SDS011;18912;43.270;27.942;2024-02-26T04:03:41;41.13;;;15.03;;
32455;SDS011;18912;43.270;27.942;2024-02-26T04:06:10;44.80;;;15.17;;
32455;SDS011;18912;43.270;27.942;2024-02-26T04:08:36;49.75;;;16.50;;
32455;SDS011;18912;43.270;27.942;2024-02-26T04:11:03;38.95;;;15.80;;
32455;SDS011;18912;43.270;27.942;2024-02-26T04:13:35;32.97;;;14.13;;
32455;SDS011;18912;43.270;27.942;2024-02-26T04:16:06;44.15;;;16.23;;
32455;SDS011;18912;43.270;27.942;2024-02-26T04:18:31;37.38;;;14.15;;
32455;SDS011;18912;43.270;27.942;2024-02-26T04:20:57;37.50;;;13.77;;
32455;SDS011;18912;43.270;27.942;2024-02-26T04:23:23;32.93;;;13.13;;
32455;SDS011;18912;43.270;27.942;2024-02-26T04:25:48;33.40;;;11.37;;
32455;SDS011;18912;43.270;27.942;2024-02-26T04:28:14;30.10;;;12.13;;
32455;SDS011;18912;43.270;27.942;2024-02-26T04:30:40;33.63;;;8.80;;
32455;SDS011;18912;43.270;27.942;2024-02-26T04:33:06;32.25;;;11.07;;
32455;SDS011;18912;43.270;27.942;2024-02-26T04:35:31;44.17;;;12.50;;
32455;SDS011;18912;43.270;27.942;2024-02-26T04:37:56;32.10;;;11.87;;
32455;SDS011;18912;43.270;27.942;2024-02-26T04:40:23;41.05;;;12.93;;
32455;SDS011;18912;43.270;27.942;2024-02-26T04:42:48;36.83;;;13.23;;
32455;SDS011;18912;43.270;27.942;2024-02-26T04:45:14;41.90;;;12.73;;
32455;SDS011;18912;43.270;27.942;2024-02-26T04:47:40;35.50;;;11.87;;
32455;SDS011;18912;43.270;27.942;2024-02-26T04:50:05;61.97;;;13.17;;
32455;SDS011;18912;43.270;27.942;2024-02-26T04:52:31;42.78;;;12.20;;
32455;SDS011;18912;43.270;27.942;2024-02-26T04:54:57;43.30;;;11.80;;
32455;SDS011;18912;43.270;27.942;2024-02-26T04:57:24;33.45;;;12.27;;
32455;SDS011;18912;43.270;27.942;2024-02-26T04:59:51;49.50;;;12.43;;
32455;SDS011;18912;43.270;27.942;2024-02-26T05:02:16;52.27;;;11.53;;
32455;SDS011;18912;43.270;27.942;2024-02-26T05:04:42;32.70;;;12.50;;
32455;SDS011;18912;43.270;27.942;2024-02-26T05:07:07;41.03;;;12.37;;
32455;SDS011;18912;43.270;27.942;2024-02-26T05:09:33;29.17;;;10.93;;
32455;SDS011;18912;43.270;27.942;2024-02-26T05:11:58;36.90;;;11.77;;
32455;SDS011;18912;43.270;27.942;2024-02-26T05:14:24;32.40;;;11.37;;
32455;SDS011;18912;43.270;27.942;2024-02-26T05:16:49;34.90;;;12.33;;
32455;SDS011;18912;43.270;27.942;2024-02-26T05:19:15;35.07;;;10.73;;
32455;SDS011;18912;43.270;27.942;2024-02-26T05:21:40;29.47;;;10.80;;
32455;SDS011;18912;43.270;27.942;2024-02-26T05:24:07;35.03;;;11.23;;
32455;SDS011;18912;43.270;27.942;2024-02-26T05:26:33;46.90;;;13.57;;
32455;SDS011;18912;43.270;27.942;2024-02-26T05:28:58;81.90;;;13.77;;
32455;SDS011;18912;43.270;27.942;2024-02-26T05:31:25;47.88;;;11.35;;
32455;SDS011;18912;43.270;27.942;2024-02-26T05:33:51;90.07;;;11.52;;
32455;SDS011;18912;43.270;27.942;2024-02-26T05:36:20;106.83;;;12.10;;
32455;SDS011;18912;43.270;27.942;2024-02-26T05:38:47;71.45;;;12.25;;
32455;SDS011;18912;43.270;27.942;2024-02-26T05:41:16;76.95;;;13.38;;
32455;SDS011;18912;43.270;27.942;2024-02-26T05:43:48;57.40;;;13.35;;
32455;SDS011;18912;43.270;27.942;2024-02-26T05:46:20;41.08;;;13.52;;
32455;SDS011;18912;43.270;27.942;2024-02-26T05:48:46;48.92;;;13.05;;
32455;SDS011;18912;43.270;27.942;2024-02-26T05:51:13;39.22;;;11.75;;
32455;SDS011;18912;43.270;27.942;2024-02-26T05:53:40;36.63;;;12.73;;
32455;SDS011;18912;43.270;27.942;2024-02-26T05:56:06;27.55;;;11.93;;
32455;SDS011;18912;43.270;27.942;2024-02-26T05:58:31;31.17;;;11.33;;
32455;SDS011;18912;43.270;27.942;2024-02-26T06:00:57;34.77;;;11.47;;
32455;SDS011;18912;43.270;27.942;2024-02-26T06:03:22;32.47;;;10.43;;
32455;SDS011;18912;43.270;27.942;2024-02-26T06:05:48;43.67;;;9.60;;
32455;SDS011;18912;43.270;27.942;2024-02-26T06:08:14;43.93;;;10.53;;
32455;SDS011;18912;43.270;27.942;2024-02-26T06:10:39;39.27;;;10.37;;
32455;SDS011;18912;43.270;27.942;2024-02-26T06:13:05;28.20;;;9.13;;
32455;SDS011;18912;43.270;27.942;2024-02-26T06:15:30;26.33;;;8.77;;
32455;SDS011;18912;43.270;27.942;2024-02-26T06:17:56;38.17;;;8.70;;
32455;SDS011;18912;43.270;27.942;2024-02-26T06:20:22;28.23;;;8.53;;
32455;SDS011;18912;43.270;27.942;2024-02-26T06:22:47;25.30;;;7.97;;
32455;SDS011;18912;43.270;27.942;2024-02-26T06:25:13;35.80;;;8.77;;
32455;SDS011;18912;43.270;27.942;2024-02-26T06:27:39;15.87;;;5.10;;
32455;SDS011;18912;43.270;27.942;2024-02-26T06:30:05;32.35;;;7.72;;
32455;SDS011;18912;43.270;27.942;2024-02-26T06:32:31;21.05;;;6.68;;
32455;SDS011;18912;43.270;27.942;2024-02-26T06:34:56;23.77;;;7.17;;
32455;SDS011;18912;43.270;27.942;2024-02-26T06:37:22;20.60;;;6.50;;
32455;SDS011;18912;43.270;27.942;2024-02-26T06:39:48;20.90;;;6.70;;
32455;SDS011;18912;43.270;27.942;2024-02-26T06:42:13;18.97;;;6.23;;
32455;SDS011;18912;43.270;27.942;2024-02-26T06:44:39;26.30;;;7.50;;
32455;SDS011;18912;43.270;27.942;2024-02-26T06:47:05;15.85;;;6.03;;
32455;SDS011;18912;43.270;27.942;2024-02-26T06:49:30;19.03;;;6.53;;
32455;SDS011;18912;43.270;27.942;2024-02-26T06:51:56;19.77;;;6.80;;
32455;SDS011;18912;43.270;27.942;2024-02-26T06:54:22;22.07;;;7.37;;
32455;SDS011;18912;43.270;27.942;2024-02-26T06:56:47;23.07;;;6.30;;
32455;SDS011;18912;43.270;27.942;2024-02-26T06:59:13;23.77;;;7.03;;
32455;SDS011;18912;43.270;27.942;2024-02-26T07:01:41;20.53;;;6.20;;
32455;SDS011;18912;43.270;27.942;2024-02-26T07:04:07;15.25;;;5.43;;
32455;SDS011;18912;43.270;27.942;2024-02-26T07:06:33;18.43;;;5.80;;
32455;SDS011;18912;43.270;27.942;2024-02-26T07:08:58;16.83;;;6.10;;
32455;SDS011;18912;43.270;27.942;2024-02-26T07:11:24;18.07;;;5.90;;
32455;SDS011;18912;43.270;27.942;2024-02-26T07:13:49;19.23;;;6.50;;
32455;SDS011;18912;43.270;27.942;2024-02-26T07:16:15;20.87;;;6.23;;
32455;SDS011;18912;43.270;27.942;2024-02-26T07:18:41;17.10;;;5.63;;
32455;SDS011;18912;43.270;27.942;2024-02-26T07:21:08;15.93;;;5.85;;
32455;SDS011;18912;43.270;27.942;2024-02-26T07:23:34;18.27;;;6.28;;
32455;SDS011;18912;43.270;27.942;2024-02-26T07:26:00;20.33;;;5.77;;
32455;SDS011;18912;43.270;27.942;2024-02-26T07:28:25;17.40;;;5.80;;
32455;SDS011;18912;43.270;27.942;2024-02-26T07:30:51;16.63;;;5.67;;
32455;SDS011;18912;43.270;27.942;2024-02-26T07:33:16;17.57;;;5.60;;
32455;SDS011;18912;43.270;27.942;2024-02-26T07:35:42;17.63;;;6.17;;
32455;SDS011;18912;43.270;27.942;2024-02-26T07:38:08;17.47;;;5.90;;
32455;SDS011;18912;43.270;27.942;2024-02-26T07:40:33;15.97;;;5.80;;
32455;SDS011;18912;43.270;27.942;2024-02-26T07:42:59;14.70;;;6.30;;
32455;SDS011;18912;43.270;27.942;2024-02-26T07:45:24;13.23;;;5.13;;
32455;SDS011;18912;43.270;27.942;2024-02-26T07:47:50;20.40;;;6.03;;
32455;SDS011;18912;43.270;27.942;2024-02-26T07:50:17;14.85;;;5.15;;
32455;SDS011;18912;43.270;27.942;2024-02-26T07:52:43;12.65;;;5.13;;
32455;SDS011;18912;43.270;27.942;2024-02-26T07:57:35;14.70;;;6.20;;
32455;SDS011;18912;43.270;27.942;2024-02-26T08:00:01;16.97;;;5.97;;
32455;SDS011;18912;43.270;27.942;2024-02-26T08:02:28;16.02;;;5.68;;
32455;SDS011;18912;43.270;27.942;2024-02-26T08:04:53;12.50;;;5.47;;
32455;SDS011;18912;43.270;27.942;2024-02-26T08:07:19;17.43;;;6.23;;
32455;SDS011;18912;43.270;27.942;2024-02-26T08:09:46;19.45;;;5.95;;
32455;SDS011;18912;43.270;27.942;2024-02-26T08:12:12;13.50;;;5.03;;
32455;SDS011;18912;43.270;27.942;2024-02-26T08:14:38;13.20;;;6.03;;
32455;SDS011;18912;43.270;27.942;2024-02-26T08:17:03;21.03;;;6.13;;
32455;SDS011;18912;43.270;27.942;2024-02-26T08:19:29;13.43;;;4.87;;
32455;SDS011;18912;43.270;27.942;2024-02-26T08:21:54;16.30;;;5.73;;
32455;SDS011;18912;43.270;27.942;2024-02-26T08:24:20;22.23;;;6.13;;
32455;SDS011;18912;43.270;27.942;2024-02-26T08:26:46;16.93;;;5.37;;
32455;SDS011;18912;43.270;27.942;2024-02-26T08:29:11;17.90;;;5.67;;
32455;SDS011;18912;43.270;27.942;2024-02-26T08:31:37;18.47;;;5.63;;
32455;SDS011;18912;43.270;27.942;2024-02-26T08:34:03;16.10;;;5.60;;
32455;SDS011;18912;43.270;27.942;2024-02-26T08:36:33;11.07;;;4.80;;
32455;SDS011;18912;43.270;27.942;2024-02-26T08:38:59;9.93;;;4.63;;
32455;SDS011;18912;43.270;27.942;2024-02-26T08:41:25;15.53;;;5.50;;
32455;SDS011;18912;43.270;27.942;2024-02-26T08:43:51;10.57;;;3.80;;
32455;SDS011;18912;43.270;27.942;2024-02-26T08:46:16;16.63;;;5.47;;
32455;SDS011;18912;43.270;27.942;2024-02-26T08:48:42;14.33;;;4.90;;
32455;SDS011;18912;43.270;27.942;2024-02-26T08:51:08;18.27;;;5.43;;
32455;SDS011;18912;43.270;27.942;2024-02-26T08:53:34;11.98;;;4.57;;
32455;SDS011;18912;43.270;27.942;2024-02-26T08:56:01;11.23;;;4.95;;
32455;SDS011;18912;43.270;27.942;2024-02-26T08:58:27;16.75;;;5.57;;
32455;SDS011;18912;43.270;27.942;2024-02-26T09:00:54;17.13;;;5.97;;
32455;SDS011;18912;43.270;27.942;2024-02-26T09:03:20;18.58;;;6.20;;
32455;SDS011;18912;43.270;27.942;2024-02-26T09:05:46;15.67;;;6.27;;
32455;SDS011;18912;43.270;27.942;2024-02-26T09:08:11;16.40;;;5.67;;
32455;SDS011;18912;43.270;27.942;2024-02-26T09:10:37;17.57;;;5.03;;
32455;SDS011;18912;43.270;27.942;2024-02-26T09:15:29;21.00;;;5.22;;
32455;SDS011;18912;43.270;27.942;2024-02-26T09:17:54;14.23;;;5.33;;
32455;SDS011;18912;43.270;27.942;2024-02-26T09:20:20;22.37;;;5.87;;
32455;SDS011;18912;43.270;27.942;2024-02-26T09:25:12;16.55;;;4.95;;
32455;SDS011;18912;43.270;27.942;2024-02-26T09:27:39;18.05;;;4.95;;
32455;SDS011;18912;43.270;27.942;2024-02-26T09:30:04;15.53;;;5.27;;
32455;SDS011;18912;43.270;27.942;2024-02-26T09:32:30;22.00;;;5.78;;
32455;SDS011;18912;43.270;27.942;2024-02-26T09:34:56;19.70;;;5.93;;
32455;SDS011;18912;43.270;27.942;2024-02-26T09:37:21;17.63;;;5.27;;
32455;SDS011;18912;43.270;27.942;2024-02-26T09:39:47;17.23;;;5.63;;
32455;SDS011;18912;43.270;27.942;2024-02-26T09:42:13;16.50;;;5.93;;
32455;SDS011;18912;43.270;27.942;2024-02-26T09:44:40;15.33;;;5.50;;
32455;SDS011;18912;43.270;27.942;2024-02-26T09:47:11;20.98;;;6.28;;
32455;SDS011;18912;43.270;27.942;2024-02-26T09:49:42;18.35;;;5.18;;
32455;SDS011;18912;43.270;27.942;2024-02-26T09:52:09;19.30;;;5.82;;
32455;SDS011;18912;43.270;27.942;2024-02-26T09:54:34;20.77;;;7.18;;
32455;SDS011;18912;43.270;27.942;2024-02-26T09:57:02;14.13;;;5.10;;
32455;SDS011;18912;43.270;27.942;2024-02-26T09:59:29;18.35;;;6.45;;
32455;SDS011;18912;43.270;27.942;2024-02-26T10:02:02;16.13;;;5.38;;
32455;SDS011;18912;43.270;27.942;2024-02-26T10:04:28;18.90;;;5.65;;
32455;SDS011;18912;43.270;27.942;2024-02-26T10:06:55;14.15;;;5.28;;
32455;SDS011;18912;43.270;27.942;2024-02-26T10:09:21;18.48;;;5.70;;
32455;SDS011;18912;43.270;27.942;2024-02-26T10:11:47;14.60;;;4.63;;
32455;SDS011;18912;43.270;27.942;2024-02-26T10:14:14;12.73;;;5.18;;
32455;SDS011;18912;43.270;27.942;2024-02-26T10:19:06;14.98;;;5.20;;
32455;SDS011;18912;43.270;27.942;2024-02-26T10:21:32;14.50;;;4.70;;
32455;SDS011;18912;43.270;27.942;2024-02-26T10:23:57;12.33;;;4.40;;
32455;SDS011;18912;43.270;27.942;2024-02-26T10:26:23;14.50;;;4.40;;
32455;SDS011;18912;43.270;27.942;2024-02-26T10:28:49;15.87;;;5.50;;
32455;SDS011;18912;43.270;27.942;2024-02-26T10:31:14;20.23;;;5.57;;
32455;SDS011;18912;43.270;27.942;2024-02-26T10:33:40;16.85;;;4.97;;
32455;SDS011;18912;43.270;27.942;2024-02-26T10:36:07;14.60;;;4.70;;
32455;SDS011;18912;43.270;27.942;2024-02-26T10:38:34;14.10;;;4.80;;
32455;SDS011;18912;43.270;27.942;2024-02-26T10:41:04;13.48;;;4.82;;
32455;SDS011;18912;43.270;27.942;2024-02-26T10:43:31;20.38;;;4.85;;
32455;SDS011;18912;43.270;27.942;2024-02-26T10:45:57;16.13;;;5.23;;
32455;SDS011;18912;43.270;27.942;2024-02-26T10:48:22;17.13;;;4.78;;
32455;SDS011;18912;43.270;27.942;2024-02-26T10:50:48;18.07;;;5.03;;
32455;SDS011;18912;43.270;27.942;2024-02-26T10:53:25;20.02;;;5.18;;
32455;SDS011;18912;43.270;27.942;2024-02-26T10:55:57;13.80;;;4.40;;
32455;SDS011;18912;43.270;27.942;2024-02-26T10:58:26;10.30;;;4.75;;
32455;SDS011;18912;43.270;27.942;2024-02-26T11:00:53;14.30;;;4.15;;
32455;SDS011;18912;43.270;27.942;2024-02-26T11:03:21;12.80;;;4.40;;
32455;SDS011;18912;43.270;27.942;2024-02-26T11:05:48;13.60;;;4.57;;
32455;SDS011;18912;43.270;27.942;2024-02-26T11:08:18;11.93;;;4.30;;
32455;SDS011;18912;43.270;27.942;2024-02-26T11:10:48;15.25;;;4.97;;
32455;SDS011;18912;43.270;27.942;2024-02-26T11:13:18;15.40;;;4.15;;
32455;SDS011;18912;43.270;27.942;2024-02-26T11:18:16;15.98;;;4.45;;
32455;SDS011;18912;43.270;27.942;2024-02-26T11:20:44;15.63;;;4.85;;
32455;SDS011;18912;43.270;27.942;2024-02-26T11:23:11;19.63;;;4.93;;
32455;SDS011;18912;43.270;27.942;2024-02-26T11:25:37;12.80;;;4.67;;
32455;SDS011;18912;43.270;27.942;2024-02-26T11:28:05;13.68;;;5.20;;
32455;SDS011;18912;43.270;27.942;2024-02-26T11:30:36;11.95;;;4.53;;
32455;SDS011;18912;43.270;27.942;2024-02-26T11:33:09;14.13;;;4.50;;
32455;SDS011;18912;43.270;27.942;2024-02-26T11:35:37;13.68;;;4.85;;
32455;SDS011;18912;43.270;27.942;2024-02-26T11:38:03;18.50;;;4.60;;
32455;SDS011;18912;43.270;27.942;2024-02-26T11:40:31;16.25;;;4.93;;
32455;SDS011;18912;43.270;27.942;2024-02-26T11:42:57;12.55;;;4.95;;
32455;SDS011;18912;43.270;27.942;2024-02-26T11:48:04;16.05;;;4.72;;
32455;SDS011;18912;43.270;27.942;2024-02-26T11:50:51;15.20;;;4.65;;
32455;SDS011;18912;43.270;27.942;2024-02-26T11:59:01;11.45;;;4.18;;
32455;SDS011;18912;43.270;27.942;2024-02-26T12:02:09;10.20;;;4.47;;
32455;SDS011;18912;43.270;27.942;2024-02-26T12:04:24;22.35;;;4.55;;
32455;SDS011;18912;43.270;27.942;2024-02-26T12:07:02;19.10;;;4.55;;
32455;SDS011;18912;43.270;27.942;2024-02-26T12:09:38;11.23;;;4.47;;
32455;SDS011;18912;43.270;27.942;2024-02-26T12:12:08;14.57;;;4.32;;
32455;SDS011;18912;43.270;27.942;2024-02-26T12:17:20;13.00;;;4.10;;
32455;SDS011;18912;43.270;27.942;2024-02-26T12:19:47;16.00;;;4.68;;
32455;SDS011;18912;43.270;27.942;2024-02-26T12:22:13;14.60;;;4.90;;
32455;SDS011;18912;43.270;27.942;2024-02-26T12:24:42;15.85;;;5.20;;
32455;SDS011;18912;43.270;27.942;2024-02-26T12:29:34;14.93;;;4.50;;
32455;SDS011;18912;43.270;27.942;2024-02-26T12:32:00;19.03;;;5.47;;
32455;SDS011;18912;43.270;27.942;2024-02-26T12:36:53;14.98;;;4.30;;
32455;SDS011;18912;43.270;27.942;2024-02-26T12:39:19;22.40;;;5.85;;
32455;SDS011;18912;43.270;27.942;2024-02-26T12:41:46;14.25;;;4.70;;
32455;SDS011;18912;43.270;27.942;2024-02-26T12:44:15;20.85;;;4.85;;
32455;SDS011;18912;43.270;27.942;2024-02-26T12:46:41;19.98;;;4.68;;
32455;SDS011;18912;43.270;27.942;2024-02-26T12:49:07;18.53;;;5.80;;
32455;SDS011;18912;43.270;27.942;2024-02-26T12:51:33;20.10;;;4.65;;
32455;SDS011;18912;43.270;27.942;2024-02-26T12:54:00;15.63;;;5.05;;
32455;SDS011;18912;43.270;27.942;2024-02-26T12:58:52;16.45;;;5.18;;
32455;SDS011;18912;43.270;27.942;2024-02-26T13:01:19;23.60;;;5.30;;
32455;SDS011;18912;43.270;27.942;2024-02-26T13:03:49;18.95;;;5.43;;
32455;SDS011;18912;43.270;27.942;2024-02-26T13:06:16;28.92;;;6.03;;
32455;SDS011;18912;43.270;27.942;2024-02-26T13:08:43;19.35;;;5.35;;
32455;SDS011;18912;43.270;27.942;2024-02-26T13:11:08;26.93;;;5.30;;
32455;SDS011;18912;43.270;27.942;2024-02-26T13:13:34;19.47;;;5.20;;
32455;SDS011;18912;43.270;27.942;2024-02-26T13:16:05;17.73;;;6.05;;
32455;SDS011;18912;43.270;27.942;2024-02-26T13:18:33;24.85;;;5.57;;
32455;SDS011;18912;43.270;27.942;2024-02-26T13:21:12;22.23;;;5.15;;
32455;SDS011;18912;43.270;27.942;2024-02-26T13:23:42;14.82;;;5.35;;
32455;SDS011;18912;43.270;27.942;2024-02-26T13:26:08;22.15;;;5.82;;
32455;SDS011;18912;43.270;27.942;2024-02-26T13:28:38;19.98;;;5.82;;
32455;SDS011;18912;43.270;27.942;2024-02-26T13:31:04;21.33;;;6.03;;
32455;SDS011;18912;43.270;27.942;2024-02-26T13:33:32;22.50;;;5.47;;
32455;SDS011;18912;43.270;27.942;2024-02-26T13:35:58;17.70;;;5.55;;
32455;SDS011;18912;43.270;27.942;2024-02-26T13:38:25;22.48;;;5.47;;
32455;SDS011;18912;43.270;27.942;2024-02-26T13:40:51;16.05;;;6.68;;
32455;SDS011;18912;43.270;27.942;2024-02-26T13:43:18;25.48;;;6.60;;
32455;SDS011;18912;43.270;27.942;2024-02-26T13:45:44;28.40;;;6.88;;
32455;SDS011;18912;43.270;27.942;2024-02-26T13:48:11;25.13;;;6.63;;
32455;SDS011;18912;43.270;27.942;2024-02-26T13:53:06;17.40;;;6.18;;
32455;SDS011;18912;43.270;27.942;2024-02-26T13:55:32;17.77;;;4.68;;
32455;SDS011;18912;43.270;27.942;2024-02-26T13:57:58;30.90;;;7.25;;
32455;SDS011;18912;43.270;27.942;2024-02-26T14:00:26;26.23;;;7.47;;
32455;SDS011;18912;43.270;27.942;2024-02-26T14:02:59;23.10;;;6.70;;
32455;SDS011;18912;43.270;27.942;2024-02-26T14:05:25;24.00;;;7.88;;
32455;SDS011;18912;43.270;27.942;2024-02-26T14:07:51;27.50;;;7.73;;
32455;SDS011;18912;43.270;27.942;2024-02-26T14:10:17;20.20;;;8.20;;
32455;SDS011;18912;43.270;27.942;2024-02-26T14:12:43;21.90;;;6.93;;
32455;SDS011;18912;43.270;27.942;2024-02-26T14:15:09;40.90;;;10.50;;
32455;SDS011;18912;43.270;27.942;2024-02-26T14:20:01;22.15;;;7.55;;
32455;SDS011;18912;43.270;27.942;2024-02-26T14:22:28;26.95;;;7.70;;
32455;SDS011;18912;43.270;27.942;2024-02-26T14:24:56;21.52;;;8.60;;
32455;SDS011;18912;43.270;27.942;2024-02-26T14:27:21;29.17;;;10.45;;
32455;SDS011;18912;43.270;27.942;2024-02-26T14:29:47;27.90;;;8.57;;
32455;SDS011;18912;43.270;27.942;2024-02-26T14:32:13;29.35;;;9.07;;
32455;SDS011;18912;43.270;27.942;2024-02-26T14:34:39;18.70;;;8.18;;
32455;SDS011;18912;43.270;27.942;2024-02-26T14:37:05;27.13;;;8.60;;
32455;SDS011;18912;43.270;27.942;2024-02-26T14:39:33;31.33;;;9.77;;
32455;SDS011;18912;43.270;27.942;2024-02-26T14:41:59;32.90;;;11.23;;
32455;SDS011;18912;43.270;27.942;2024-02-26T14:44:25;27.40;;;9.20;;
32455;SDS011;18912;43.270;27.942;2024-02-26T14:46:51;40.20;;;9.83;;
32455;SDS011;18912;43.270;27.942;2024-02-26T14:49:17;26.03;;;8.63;;
32455;SDS011;18912;43.270;27.942;2024-02-26T14:51:45;29.33;;;8.47;;